Time;durP1;ratioP1;P1;durP2;ratioP2;P2;SDS_P1;SDS_P2;PMS_P1;PMS_P2;Temp;Humidity;BMP_temperature;BMP_pressure;BME280_temperature;BME280_humidity;BME280_pressure;Samples;Min_cycle;Max_cycle;Signal;HPM_P1;HPM_P2
2023/04/30 00:02:01;;;;;;;4.40;3.20;;;;;;;;;;5059720;28;20105;-77
2023/04/30 00:04:27;;;;;;;4.55;2.80;;;;;;;;;;5050188;28;20053;-76
2023/04/30 00:06:54;;;;;;;4.88;3.38;;;;;;;;;;5036082;28;20052;-76
2023/04/30 00:09:20;;;;;;;3.72;2.97;;;;;;;;;;5040820;28;20017;-77
2023/04/30 00:11:46;;;;;;;5.93;3.13;;;;;;;;;;5053071;28;20026;-77
2023/04/30 00:14:13;;;;;;;4.10;3.20;;;;;;;;;;5039110;28;20048;-77
2023/04/30 00:16:39;;;;;;;3.75;3.10;;;;;;;;;;5068887;28;20025;-75
2023/04/30 00:19:05;;;;;;;3.97;3.17;;;;;;;;;;5040050;28;20184;-76
2023/04/30 00:21:32;;;;;;;3.72;3.20;;;;;;;;;;5060855;28;20021;-76
2023/04/30 00:23:59;;;;;;;4.85;3.00;;;;;;;;;;5042964;28;20463;-76
2023/04/30 00:26:25;;;;;;;3.47;2.83;;;;;;;;;;5060101;28;20056;-76
2023/04/30 00:28:51;;;;;;;4.47;2.95;;;;;;;;;;5041213;28;20029;-77
2023/04/30 00:31:18;;;;;;;5.18;2.80;;;;;;;;;;5043837;28;20037;-76
2023/04/30 00:33:44;;;;;;;6.50;2.95;;;;;;;;;;5040425;28;20571;-76
2023/04/30 00:36:10;;;;;;;6.30;3.00;;;;;;;;;;5066165;28;20025;-76
2023/04/30 00:38:36;;;;;;;4.30;3.30;;;;;;;;;;5047468;28;20391;-76
2023/04/30 00:41:02;;;;;;;7.35;3.20;;;;;;;;;;5055318;28;20053;-77
2023/04/30 00:43:28;;;;;;;5.32;3.58;;;;;;;;;;5040660;28;20026;-77
2023/04/30 00:45:54;;;;;;;3.95;3.15;;;;;;;;;;5053618;28;20033;-76
2023/04/30 00:48:21;;;;;;;4.05;3.50;;;;;;;;;;5036102;28;20029;-77
2023/04/30 00:50:47;;;;;;;5.20;3.40;;;;;;;;;;5039977;28;20118;-76
2023/04/30 00:53:13;;;;;;;7.00;3.55;;;;;;;;;;5037658;28;20025;-76
2023/04/30 00:55:40;;;;;;;5.22;3.58;;;;;;;;;;5051940;28;20575;-76
2023/04/30 00:58:09;;;;;;;5.82;3.28;;;;;;;;;;5036723;28;20017;-77
2023/04/30 01:00:36;;;;;;;5.80;3.83;;;;;;;;;;5053727;28;20025;-77
2023/04/30 01:03:02;;;;;;;4.53;3.30;;;;;;;;;;5051817;28;20033;-77
2023/04/30 01:05:28;;;;;;;6.55;3.60;;;;;;;;;;5053378;28;20033;-77
2023/04/30 01:07:55;;;;;;;5.75;3.47;;;;;;;;;;5051600;28;20029;-76
2023/04/30 01:10:26;;;;;;;5.07;3.25;;;;;;;;;;5043860;28;20029;-76
2023/04/30 01:12:58;;;;;;;4.70;3.15;;;;;;;;;;5055783;28;20018;-76
2023/04/30 01:15:28;;;;;;;4.50;3.08;;;;;;;;;;5066787;28;20044;-75
2023/04/30 01:18:29;;;;;;;7.03;3.35;;;;;;;;;;5048277;28;20024;-76
2023/04/30 01:21:02;;;;;;;3.95;3.00;;;;;;;;;;4972806;28;20582;-77
2023/04/30 01:23:47;;;;;;;4.57;3.40;;;;;;;;;;5025581;28;20029;-76
2023/04/30 01:26:13;;;;;;;5.23;3.43;;;;;;;;;;5034652;28;20056;-76
2023/04/30 01:28:39;;;;;;;6.18;3.53;;;;;;;;;;5053707;28;20048;-76
2023/04/30 01:31:15;;;;;;;4.43;3.30;;;;;;;;;;5051591;28;20073;-78
2023/04/30 01:33:41;;;;;;;5.07;3.17;;;;;;;;;;5031265;28;20017;-75
2023/04/30 01:36:07;;;;;;;6.07;3.55;;;;;;;;;;5038496;28;20520;-75
2023/04/30 01:38:54;;;;;;;5.70;3.25;;;;;;;;;;5035798;28;20025;-75
2023/04/30 01:41:46;;;;;;;5.53;3.22;;;;;;;;;;5050758;28;20029;-77
2023/04/30 01:44:21;;;;;;;5.80;3.85;;;;;;;;;;5017802;28;20037;-74
2023/04/30 01:47:02;;;;;;;5.18;3.90;;;;;;;;;;5037970;28;20075;-75
2023/04/30 01:49:43;;;;;;;4.80;3.10;;;;;;;;;;5051296;28;20091;-77
2023/04/30 01:52:15;;;;;;;8.13;3.60;;;;;;;;;;5051383;28;20036;-75
2023/04/30 01:54:50;;;;;;;5.00;3.92;;;;;;;;;;5051439;28;20030;-75
2023/04/30 01:57:20;;;;;;;5.10;3.70;;;;;;;;;;5036720;28;20033;-75
2023/04/30 01:59:47;;;;;;;4.70;3.40;;;;;;;;;;5037080;28;20092;-74
2023/04/30 02:02:13;;;;;;;4.50;3.20;;;;;;;;;;5050053;28;20092;-75
2023/04/30 02:04:39;;;;;;;5.72;4.00;;;;;;;;;;5032868;28;20035;-75
2023/04/30 02:07:05;;;;;;;6.03;3.53;;;;;;;;;;5045767;28;20092;-77
2023/04/30 02:09:31;;;;;;;5.32;4.15;;;;;;;;;;5034245;28;20029;-76
2023/04/30 02:11:57;;;;;;;8.70;7.40;;;;;;;;;;5036178;28;20077;-75
2023/04/30 02:14:23;;;;;;;6.18;4.90;;;;;;;;;;5048399;28;20096;-76
2023/04/30 02:16:50;;;;;;;4.93;3.63;;;;;;;;;;5035344;28;20036;-76
2023/04/30 02:19:16;;;;;;;4.97;3.72;;;;;;;;;;5036803;28;20021;-76
2023/04/30 02:21:42;;;;;;;5.00;3.20;;;;;;;;;;5036433;28;20029;-75
2023/04/30 02:24:08;;;;;;;5.18;3.60;;;;;;;;;;5037532;28;20389;-75
2023/04/30 02:26:34;;;;;;;5.20;3.50;;;;;;;;;;5051794;28;20036;-74
2023/04/30 02:29:01;;;;;;;3.72;2.95;;;;;;;;;;5050864;28;20049;-75
2023/04/30 02:31:27;;;;;;;5.95;3.30;;;;;;;;;;5035814;28;20049;-74
2023/04/30 02:33:53;;;;;;;5.10;3.42;;;;;;;;;;5007836;28;20098;-74
2023/04/30 02:36:19;;;;;;;4.10;3.08;;;;;;;;;;5023501;28;20054;-75
2023/04/30 02:38:45;;;;;;;4.90;3.17;;;;;;;;;;5028244;28;20297;-76
2023/04/30 02:41:11;;;;;;;3.35;2.63;;;;;;;;;;4992168;28;20023;-74
2023/04/30 02:43:37;;;;;;;5.38;2.67;;;;;;;;;;4995718;28;20023;-75
2023/04/30 02:46:03;;;;;;;4.00;3.30;;;;;;;;;;4995318;28;20495;-76
2023/04/30 02:48:30;;;;;;;3.22;2.58;;;;;;;;;;5012536;28;20027;-75
2023/04/30 02:50:56;;;;;;;3.72;2.67;;;;;;;;;;4997841;28;21834;-76
2023/04/30 02:53:22;;;;;;;4.15;2.53;;;;;;;;;;5028739;28;20026;-77
2023/04/30 02:55:48;;;;;;;3.45;2.00;;;;;;;;;;4988607;28;20598;-76
2023/04/30 02:58:14;;;;;;;2.60;2.20;;;;;;;;;;4999674;28;20113;-76
2023/04/30 03:00:40;;;;;;;3.05;2.72;;;;;;;;;;4995896;28;20096;-75
2023/04/30 03:03:06;;;;;;;2.75;2.03;;;;;;;;;;5025382;28;20062;-75
2023/04/30 03:05:32;;;;;;;2.25;1.90;;;;;;;;;;4995713;28;20034;-75
2023/04/30 03:07:59;;;;;;;2.42;1.88;;;;;;;;;;4997119;28;20030;-76
2023/04/30 03:10:25;;;;;;;3.20;1.90;;;;;;;;;;4994671;28;20033;-75
2023/04/30 03:12:52;;;;;;;2.65;1.80;;;;;;;;;;4988112;28;20023;-76
2023/04/30 03:15:18;;;;;;;2.50;1.88;;;;;;;;;;5025475;28;20030;-76
2023/04/30 03:17:44;;;;;;;4.47;2.08;;;;;;;;;;5003706;28;20407;-76
2023/04/30 03:20:11;;;;;;;2.20;1.73;;;;;;;;;;4998185;28;20023;-76
2023/04/30 03:22:37;;;;;;;3.28;2.10;;;;;;;;;;4996742;28;20083;-77
2023/04/30 03:25:04;;;;;;;2.22;1.85;;;;;;;;;;4989984;28;20458;-74
2023/04/30 03:27:30;;;;;;;2.47;1.90;;;;;;;;;;4997762;28;20031;-76
2023/04/30 03:29:57;;;;;;;2.10;1.80;;;;;;;;;;5029577;28;20026;-76
2023/04/30 03:32:23;;;;;;;1.58;1.48;;;;;;;;;;5028747;28;20041;-75
2023/04/30 03:34:50;;;;;;;2.03;1.65;;;;;;;;;;5042595;28;20080;-76
2023/04/30 03:37:16;;;;;;;1.63;1.52;;;;;;;;;;5061158;28;20022;-73
2023/04/30 03:39:43;;;;;;;1.60;1.50;;;;;;;;;;5062861;28;20494;-76
2023/04/30 03:42:09;;;;;;;1.50;1.40;;;;;;;;;;5035748;28;20056;-77
2023/04/30 03:44:36;;;;;;;2.13;1.27;;;;;;;;;;5036965;28;20041;-76
2023/04/30 03:47:02;;;;;;;1.90;1.40;;;;;;;;;;5038229;28;20051;-75
2023/04/30 03:49:28;;;;;;;1.38;1.27;;;;;;;;;;5039249;28;20045;-77
2023/04/30 03:51:54;;;;;;;1.33;1.23;;;;;;;;;;5039761;28;20021;-75
2023/04/30 03:54:20;;;;;;;1.35;1.25;;;;;;;;;;5061629;28;20013;-76
2023/04/30 03:56:46;;;;;;;1.10;1.10;;;;;;;;;;5051298;28;20025;-76
2023/04/30 03:59:12;;;;;;;2.22;1.52;;;;;;;;;;5039222;28;20029;-77
2023/04/30 04:01:38;;;;;;;1.10;1.10;;;;;;;;;;5041125;28;20084;-75
2023/04/30 04:04:05;;;;;;;1.25;1.20;;;;;;;;;;5041314;28;20029;-78
2023/04/30 04:06:31;;;;;;;1.10;1.10;;;;;;;;;;5035811;28;20025;-75
2023/04/30 04:08:57;;;;;;;1.20;1.20;;;;;;;;;;5040987;28;20052;-76
2023/04/30 04:11:23;;;;;;;1.20;1.20;;;;;;;;;;5041583;28;20025;-76
2023/04/30 04:13:49;;;;;;;0.98;0.98;;;;;;;;;;5056058;28;20025;-76
2023/04/30 04:16:15;;;;;;;1.13;1.13;;;;;;;;;;5041269;28;20029;-76
2023/04/30 04:18:41;;;;;;;1.20;1.20;;;;;;;;;;5057741;28;20033;-78
2023/04/30 04:21:08;;;;;;;1.35;1.25;;;;;;;;;;5067253;28;20591;-76
2023/04/30 04:23:34;;;;;;;1.48;1.35;;;;;;;;;;5056943;28;20029;-75
2023/04/30 04:26:00;;;;;;;1.20;1.20;;;;;;;;;;5057806;28;20028;-76
2023/04/30 04:28:27;;;;;;;1.42;1.33;;;;;;;;;;5056256;28;20094;-76
2023/04/30 04:30:54;;;;;;;1.98;1.40;;;;;;;;;;5040680;28;20502;-77
2023/04/30 04:33:20;;;;;;;1.50;1.40;;;;;;;;;;5040018;28;20049;-76
2023/04/30 04:35:46;;;;;;;1.35;1.27;;;;;;;;;;5057914;28;20025;-76
2023/04/30 04:38:13;;;;;;;1.40;1.30;;;;;;;;;;5058508;28;20171;-76
2023/04/30 04:40:39;;;;;;;1.55;1.30;;;;;;;;;;5037276;28;20030;-76
2023/04/30 04:43:06;;;;;;;1.38;1.27;;;;;;;;;;5038019;28;20032;-76
2023/04/30 04:45:32;;;;;;;1.40;1.30;;;;;;;;;;5036345;28;20030;-77
2023/04/30 04:47:58;;;;;;;2.75;1.40;;;;;;;;;;5054231;28;20394;-77
2023/04/30 04:50:24;;;;;;;1.60;1.50;;;;;;;;;;5039092;28;20173;-75
2023/04/30 04:52:50;;;;;;;1.50;1.40;;;;;;;;;;5042300;28;20045;-76
2023/04/30 04:55:17;;;;;;;2.00;1.80;;;;;;;;;;5042289;28;20064;-76
2023/04/30 04:57:43;;;;;;;2.88;1.80;;;;;;;;;;5061127;28;20022;-77
2023/04/30 05:00:11;;;;;;;2.40;1.92;;;;;;;;;;5055260;28;20426;-76
2023/04/30 05:02:37;;;;;;;2.05;1.85;;;;;;;;;;5053410;28;20116;-76
2023/04/30 05:05:03;;;;;;;3.10;1.90;;;;;;;;;;5037346;28;20022;-77
2023/04/30 05:07:30;;;;;;;2.63;2.03;;;;;;;;;;5041114;28;20490;-77
2023/04/30 05:09:56;;;;;;;2.35;2.05;;;;;;;;;;5052276;28;20029;-77
2023/04/30 05:12:22;;;;;;;3.05;2.28;;;;;;;;;;5035747;28;20022;-77
2023/04/30 05:14:50;;;;;;;2.33;2.10;;;;;;;;;;5053382;28;20432;-75
2023/04/30 05:17:16;;;;;;;2.45;2.17;;;;;;;;;;5053431;28;20056;-77
2023/04/30 05:19:42;;;;;;;2.85;2.22;;;;;;;;;;5052936;28;20037;-78
2023/04/30 05:22:08;;;;;;;2.30;2.10;;;;;;;;;;5032878;28;20637;-76
2023/04/30 05:24:34;;;;;;;5.55;2.20;;;;;;;;;;5034056;28;20128;-77
2023/04/30 05:27:04;;;;;;;2.85;2.30;;;;;;;;;;5032448;28;20037;-76
2023/04/30 05:29:30;;;;;;;2.97;2.42;;;;;;;;;;5054560;28;20021;-76
2023/04/30 05:31:56;;;;;;;3.00;2.50;;;;;;;;;;5037034;28;20072;-76
2023/04/30 05:34:22;;;;;;;4.55;2.55;;;;;;;;;;5030824;28;20026;-79
2023/04/30 05:36:49;;;;;;;3.22;2.42;;;;;;;;;;5038757;28;20025;-78
2023/04/30 05:39:15;;;;;;;4.80;2.38;;;;;;;;;;5038200;28;20036;-75
2023/04/30 05:41:41;;;;;;;3.65;2.50;;;;;;;;;;5036174;28;20039;-78
2023/04/30 05:44:07;;;;;;;3.35;2.60;;;;;;;;;;5035975;28;20067;-76
2023/04/30 05:46:34;;;;;;;3.63;2.78;;;;;;;;;;5033631;28;20025;-77
2023/04/30 05:49:00;;;;;;;4.05;2.90;;;;;;;;;;5053164;28;20397;-76
2023/04/30 05:51:26;;;;;;;3.85;2.95;;;;;;;;;;5038105;28;20043;-77
2023/04/30 05:53:53;;;;;;;4.22;2.97;;;;;;;;;;5048832;28;20026;-76
2023/04/30 05:56:20;;;;;;;3.70;2.90;;;;;;;;;;5035658;28;20056;-78
2023/04/30 05:58:46;;;;;;;3.72;2.95;;;;;;;;;;5050684;28;20037;-76
2023/04/30 06:01:12;;;;;;;4.18;3.13;;;;;;;;;;5048362;28;20067;-76
2023/04/30 06:03:38;;;;;;;4.63;3.65;;;;;;;;;;5048524;28;20417;-76
2023/04/30 06:06:04;;;;;;;4.15;3.15;;;;;;;;;;5033504;28;20497;-77
2023/04/30 06:08:30;;;;;;;5.85;3.33;;;;;;;;;;5051936;28;20471;-75
2023/04/30 06:10:57;;;;;;;3.80;2.95;;;;;;;;;;5032847;28;20031;-78
2023/04/30 06:13:23;;;;;;;3.70;3.17;;;;;;;;;;5049386;28;20029;-77
2023/04/30 06:15:49;;;;;;;6.32;3.58;;;;;;;;;;5047818;28;20029;-77
2023/04/30 06:18:15;;;;;;;4.40;3.40;;;;;;;;;;5030678;28;20433;-76
2023/04/30 06:20:41;;;;;;;3.95;2.95;;;;;;;;;;5031204;28;20036;-80
2023/04/30 06:23:08;;;;;;;4.82;3.88;;;;;;;;;;5052542;28;20477;-79
2023/04/30 06:25:34;;;;;;;4.90;3.42;;;;;;;;;;5026778;28;20056;-78
2023/04/30 06:28:00;;;;;;;5.00;3.80;;;;;;;;;;5032082;28;20026;-77
2023/04/30 06:30:27;;;;;;;4.40;3.53;;;;;;;;;;5033948;28;20036;-75
2023/04/30 06:32:53;;;;;;;4.47;3.25;;;;;;;;;;5055101;28;20018;-75
2023/04/30 06:35:19;;;;;;;5.65;3.80;;;;;;;;;;5029493;28;20033;-77
2023/04/30 06:37:45;;;;;;;5.35;4.10;;;;;;;;;;5037501;28;20398;-78
2023/04/30 06:40:15;;;;;;;5.90;3.38;;;;;;;;;;5033386;28;20061;-80
2023/04/30 06:42:41;;;;;;;5.07;3.60;;;;;;;;;;5046380;28;20032;-77
2023/04/30 06:45:07;;;;;;;5.05;3.38;;;;;;;;;;5033685;28;20048;-76
2023/04/30 06:47:35;;;;;;;4.82;4.00;;;;;;;;;;5032992;28;20466;-78
2023/04/30 06:50:01;;;;;;;5.60;3.60;;;;;;;;;;5030848;28;20022;-75
2023/04/30 06:52:28;;;;;;;6.25;4.10;;;;;;;;;;5031757;28;20091;-76
2023/04/30 06:54:54;;;;;;;5.40;4.38;;;;;;;;;;5035063;28;20067;-77
2023/04/30 06:57:20;;;;;;;4.57;3.67;;;;;;;;;;5030594;28;20494;-78
2023/04/30 06:59:46;;;;;;;5.78;3.75;;;;;;;;;;5050048;28;20048;-76
2023/04/30 07:02:13;;;;;;;4.90;3.53;;;;;;;;;;5052039;28;20120;-76
2023/04/30 07:04:39;;;;;;;5.93;4.47;;;;;;;;;;5050468;28;20061;-75
2023/04/30 07:07:05;;;;;;;5.43;3.58;;;;;;;;;;5047797;28;20049;-76
2023/04/30 07:09:32;;;;;;;5.10;3.63;;;;;;;;;;5035096;28;20026;-77
2023/04/30 07:11:58;;;;;;;5.25;3.60;;;;;;;;;;5035622;28;20106;-75
2023/04/30 07:14:24;;;;;;;6.38;3.85;;;;;;;;;;5029078;28;20421;-75
2023/04/30 07:16:50;;;;;;;5.20;3.30;;;;;;;;;;5029675;28;20110;-76
2023/04/30 07:19:17;;;;;;;4.63;3.33;;;;;;;;;;5036165;28;20029;-75
2023/04/30 07:21:43;;;;;;;4.15;3.47;;;;;;;;;;5032422;28;20021;-77
2023/04/30 07:24:11;;;;;;;4.88;4.15;;;;;;;;;;5029954;28;20029;-76
2023/04/30 07:26:37;;;;;;;4.60;3.45;;;;;;;;;;5037807;28;20481;-76
2023/04/30 07:29:04;;;;;;;4.15;3.33;;;;;;;;;;5039472;28;20033;-81
2023/04/30 07:31:32;;;;;;;3.67;3.20;;;;;;;;;;5027722;28;20037;-76
2023/04/30 07:33:58;;;;;;;5.65;3.50;;;;;;;;;;5035808;28;20045;-76
2023/04/30 07:36:26;;;;;;;4.05;3.40;;;;;;;;;;5031348;28;20033;-76
2023/04/30 07:38:52;;;;;;;5.05;3.42;;;;;;;;;;5044713;28;20037;-77
2023/04/30 07:41:19;;;;;;;3.80;3.30;;;;;;;;;;5030873;28;20038;-77
2023/04/30 07:43:45;;;;;;;5.15;3.90;;;;;;;;;;5031660;28;20034;-77
2023/04/30 07:46:11;;;;;;;4.65;3.50;;;;;;;;;;5031792;28;20072;-76
2023/04/30 07:48:37;;;;;;;5.38;3.42;;;;;;;;;;5048838;28;20073;-76
2023/04/30 07:51:04;;;;;;;4.30;3.30;;;;;;;;;;5052477;28;20082;-77
2023/04/30 07:53:30;;;;;;;4.38;3.30;;;;;;;;;;5032318;28;20475;-77
2023/04/30 07:55:56;;;;;;;4.13;3.22;;;;;;;;;;5035233;28;20021;-76
2023/04/30 07:58:22;;;;;;;3.63;3.03;;;;;;;;;;5032350;28;20033;-78
2023/04/30 08:00:48;;;;;;;5.05;2.95;;;;;;;;;;5048949;28;20449;-77
2023/04/30 08:03:14;;;;;;;4.10;3.22;;;;;;;;;;5048799;28;20255;-78
2023/04/30 08:05:42;;;;;;;3.88;2.80;;;;;;;;;;5029680;28;20033;-77
2023/04/30 08:08:08;;;;;;;2.95;2.58;;;;;;;;;;5049871;28;20017;-77
2023/04/30 08:10:36;;;;;;;3.67;2.80;;;;;;;;;;5044319;28;20029;-78
2023/04/30 08:13:05;;;;;;;3.50;2.90;;;;;;;;;;5050805;28;20037;-78
2023/04/30 08:15:33;;;;;;;3.85;2.78;;;;;;;;;;5017544;28;20025;-77
2023/04/30 08:17:59;;;;;;;3.70;3.08;;;;;;;;;;5035079;28;20482;-77
2023/04/30 08:20:25;;;;;;;3.97;2.85;;;;;;;;;;5045512;28;20033;-77
2023/04/30 08:22:51;;;;;;;3.53;2.80;;;;;;;;;;5051105;28;20025;-78
2023/04/30 08:25:18;;;;;;;4.00;2.47;;;;;;;;;;5033347;28;20033;-78
2023/04/30 08:27:45;;;;;;;4.88;3.03;;;;;;;;;;5050693;28;20034;-76
2023/04/30 08:30:11;;;;;;;4.53;3.10;;;;;;;;;;5030012;28;20041;-78
2023/04/30 08:32:37;;;;;;;4.25;2.53;;;;;;;;;;5034818;28;20048;-77
2023/04/30 08:35:04;;;;;;;4.53;2.83;;;;;;;;;;5041209;28;20021;-76
2023/04/30 08:37:30;;;;;;;4.05;2.60;;;;;;;;;;5055418;28;20032;-77
2023/04/30 08:39:56;;;;;;;8.70;3.08;;;;;;;;;;5040071;28;20117;-76
2023/04/30 08:42:25;;;;;;;3.20;2.30;;;;;;;;;;5039465;28;20029;-76
2023/04/30 08:44:51;;;;;;;3.92;2.70;;;;;;;;;;5053969;28;20529;-75
2023/04/30 08:47:18;;;;;;;4.10;2.40;;;;;;;;;;5044526;28;20051;-77
2023/04/30 08:49:45;;;;;;;3.38;2.33;;;;;;;;;;5056604;28;20048;-76
2023/04/30 08:52:11;;;;;;;5.25;2.25;;;;;;;;;;5054967;28;20406;-77
2023/04/30 08:54:37;;;;;;;3.55;3.00;;;;;;;;;;5053310;28;20120;-76
2023/04/30 08:57:04;;;;;;;3.28;2.72;;;;;;;;;;5046067;28;20025;-77
2023/04/30 08:59:30;;;;;;;3.53;2.80;;;;;;;;;;5043376;28;20041;-76
2023/04/30 09:01:56;;;;;;;3.10;2.60;;;;;;;;;;5039399;28;20037;-76
2023/04/30 09:04:22;;;;;;;3.25;2.47;;;;;;;;;;5045870;28;20028;-77
2023/04/30 09:06:48;;;;;;;3.00;2.40;;;;;;;;;;5036494;28;20472;-77
2023/04/30 09:09:16;;;;;;;2.95;2.65;;;;;;;;;;5037028;28;20052;-76
2023/04/30 09:11:42;;;;;;;3.13;2.60;;;;;;;;;;5042612;28;20485;-77
2023/04/30 09:14:08;;;;;;;3.05;2.40;;;;;;;;;;5039222;28;20018;-76
2023/04/30 09:16:51;;;;;;;3.17;2.60;;;;;;;;;;5037252;28;20022;-77
2023/04/30 09:19:28;;;;;;;2.65;2.22;;;;;;;;;;5036075;28;20434;-76
2023/04/30 09:21:55;;;;;;;3.15;2.50;;;;;;;;;;5035943;28;20087;-77
2023/04/30 09:24:21;;;;;;;3.15;2.45;;;;;;;;;;5035067;28;20029;-76
2023/04/30 09:26:47;;;;;;;4.20;2.60;;;;;;;;;;5051144;28;20029;-74
2023/04/30 09:29:13;;;;;;;3.13;2.50;;;;;;;;;;5019516;28;20048;-76
2023/04/30 09:31:43;;;;;;;3.22;2.40;;;;;;;;;;5032143;28;20042;-76
2023/04/30 09:34:09;;;;;;;2.80;2.28;;;;;;;;;;5051745;28;20061;-75
2023/04/30 09:36:35;;;;;;;4.45;2.47;;;;;;;;;;5050175;28;20126;-75
2023/04/30 09:39:10;;;;;;;3.70;2.53;;;;;;;;;;5049700;28;20572;-74
2023/04/30 09:41:36;;;;;;;;;;;;;;;;;;5051310;28;20493;-74
2023/04/30 09:44:03;;;;;;;5.97;2.58;;;;;;;;;;5032687;28;19913;-75
2023/04/30 09:46:33;;;;;;;2.70;2.22;;;;;;;;;;5056681;28;20033;-75
2023/04/30 09:49:00;;;;;;;2.42;2.13;;;;;;;;;;5042119;28;20021;-75
2023/04/30 09:51:26;;;;;;;4.07;2.38;;;;;;;;;;5052116;28;20037;-76
2023/04/30 09:53:53;;;;;;;4.82;2.60;;;;;;;;;;5037687;28;20375;-75
2023/04/30 09:56:23;;;;;;;5.22;3.53;;;;;;;;;;5053786;28;20069;-75
2023/04/30 09:58:52;;;;;;;2.50;2.30;;;;;;;;;;5029431;28;20041;-75
2023/04/30 10:01:18;;;;;;;3.70;2.58;;;;;;;;;;5037154;28;20363;-75
2023/04/30 10:03:46;;;;;;;3.05;2.38;;;;;;;;;;5035636;28;20021;-75
2023/04/30 10:06:17;;;;;;;3.90;2.40;;;;;;;;;;5036022;28;20025;-75
2023/04/30 10:08:46;;;;;;;3.53;2.25;;;;;;;;;;5014768;28;20467;-77
2023/04/30 10:11:26;;;;;;;4.80;2.70;;;;;;;;;;5039275;28;20041;-75
2023/04/30 10:13:58;;;;;;;6.30;2.83;;;;;;;;;;5045795;28;20513;-77
2023/04/30 10:16:28;;;;;;;3.22;2.28;;;;;;;;;;5031986;28;20044;-75
2023/04/30 10:18:56;;;;;;;4.50;3.10;;;;;;;;;;5031419;28;20029;-75
2023/04/30 10:21:25;;;;;;;5.63;2.60;;;;;;;;;;5034338;28;20025;-75
2023/04/30 10:23:52;;;;;;;6.53;3.03;;;;;;;;;;5057608;28;20073;-75
2023/04/30 10:26:19;;;;;;;3.00;2.60;;;;;;;;;;5035956;28;20033;-75
2023/04/30 10:28:45;;;;;;;3.33;2.45;;;;;;;;;;5033255;28;20021;-74
2023/04/30 10:31:12;;;;;;;6.07;2.55;;;;;;;;;;5050576;28;20460;-75
2023/04/30 10:33:49;;;;;;;5.32;2.35;;;;;;;;;;5051460;28;20036;-75
2023/04/30 10:36:21;;;;;;;4.72;2.42;;;;;;;;;;5031699;28;20052;-76
2023/04/30 10:38:48;;;;;;;4.30;2.65;;;;;;;;;;5036010;28;20027;-75
2023/04/30 10:41:14;;;;;;;4.53;2.88;;;;;;;;;;5050400;28;20021;-75
2023/04/30 10:43:40;;;;;;;4.90;3.00;;;;;;;;;;5049616;28;20117;-75
2023/04/30 10:46:07;;;;;;;4.15;2.60;;;;;;;;;;5050649;28;20103;-76
2023/04/30 10:48:34;;;;;;;3.78;2.72;;;;;;;;;;5025822;28;20025;-76
2023/04/30 10:51:01;;;;;;;4.18;2.47;;;;;;;;;;5035528;28;20571;-76
2023/04/30 10:53:30;;;;;;;4.72;2.63;;;;;;;;;;5029372;28;20022;-75
2023/04/30 10:56:07;;;;;;;3.50;2.28;;;;;;;;;;5029412;28;20025;-75
2023/04/30 10:58:34;;;;;;;4.10;2.40;;;;;;;;;;5050630;28;20037;-74
2023/04/30 11:01:14;;;;;;;4.30;2.53;;;;;;;;;;5043678;28;20033;-76
2023/04/30 11:03:41;;;;;;;2.53;2.17;;;;;;;;;;5051069;28;20030;-77
2023/04/30 11:06:14;;;;;;;6.00;3.53;;;;;;;;;;5048432;28;20037;-75
2023/04/30 11:08:44;;;;;;;6.97;2.92;;;;;;;;;;5034462;28;20032;-75
2023/04/30 11:11:13;;;;;;;6.97;2.70;;;;;;;;;;5050450;28;20022;-75
2023/04/30 11:13:43;;;;;;;3.92;2.35;;;;;;;;;;5030046;28;20108;-76
2023/04/30 11:16:09;;;;;;;3.22;1.90;;;;;;;;;;5050327;28;20116;-76
2023/04/30 11:18:44;;;;;;;2.65;1.98;;;;;;;;;;5034176;28;20033;-76
2023/04/30 11:21:10;;;;;;;2.90;2.10;;;;;;;;;;5050605;28;20038;-74
2023/04/30 11:23:37;;;;;;;3.80;2.10;;;;;;;;;;5038108;28;20036;-76
2023/04/30 11:26:03;;;;;;;4.75;2.08;;;;;;;;;;5053024;28;20064;-74
2023/04/30 11:28:34;;;;;;;5.57;2.90;;;;;;;;;;5036571;28;20041;-76
2023/04/30 11:31:01;;;;;;;4.82;2.30;;;;;;;;;;5035154;28;20128;-74
2023/04/30 11:33:28;;;;;;;4.07;2.15;;;;;;;;;;5048975;28;20481;-75
2023/04/30 11:35:55;;;;;;;3.80;2.50;;;;;;;;;;5035838;28;20427;-76
2023/04/30 11:38:27;;;;;;;4.63;2.22;;;;;;;;;;5035272;28;20083;-75
2023/04/30 11:40:53;;;;;;;4.57;2.25;;;;;;;;;;5030706;28;20026;-79
2023/04/30 11:43:27;;;;;;;4.88;2.00;;;;;;;;;;5029002;28;20029;-78
2023/04/30 11:46:07;;;;;;;3.53;2.30;;;;;;;;;;5029384;28;20029;-75
2023/04/30 11:48:36;;;;;;;3.80;2.40;;;;;;;;;;5037261;28;20037;-76
2023/04/30 11:51:14;;;;;;;6.70;2.30;;;;;;;;;;5036983;28;20101;-75
2023/04/30 11:53:40;;;;;;;6.65;3.35;;;;;;;;;;5029469;28;20569;-74
2023/04/30 11:56:07;;;;;;;5.93;2.65;;;;;;;;;;5032501;28;20108;-77
2023/04/30 11:58:37;;;;;;;3.22;2.25;;;;;;;;;;5053807;28;20508;-74
2023/04/30 12:01:10;;;;;;;3.13;2.30;;;;;;;;;;5047934;28;20033;-74
2023/04/30 12:03:42;;;;;;;3.03;2.40;;;;;;;;;;5031195;28;20029;-75
2023/04/30 12:06:10;;;;;;;9.35;2.45;;;;;;;;;;5014573;28;20075;-74
2023/04/30 12:08:36;;;;;;;5.35;2.42;;;;;;;;;;5052813;28;20029;-75
2023/04/30 12:11:06;;;;;;;3.15;2.33;;;;;;;;;;5048492;28;20048;-76
2023/04/30 12:13:32;;;;;;;2.47;2.10;;;;;;;;;;5036691;28;20040;-77
2023/04/30 12:15:59;;;;;;;2.88;2.10;;;;;;;;;;5049314;28;20069;-75
2023/04/30 12:18:26;;;;;;;3.47;2.08;;;;;;;;;;5047813;28;20033;-74
2023/04/30 12:20:53;;;;;;;4.10;2.72;;;;;;;;;;5037014;28;20017;-74
2023/04/30 12:23:19;;;;;;;4.55;2.30;;;;;;;;;;5035965;28;20478;-74
2023/04/30 12:25:46;;;;;;;4.43;2.38;;;;;;;;;;5031142;28;20069;-75
2023/04/30 12:28:12;;;;;;;3.17;2.05;;;;;;;;;;5048925;28;20121;-75
2023/04/30 12:30:38;;;;;;;3.20;2.75;;;;;;;;;;5049705;28;20026;-75
2023/04/30 12:33:06;;;;;;;4.30;2.30;;;;;;;;;;5029706;28;20156;-75
2023/04/30 12:35:32;;;;;;;3.88;3.00;;;;;;;;;;5035474;28;20037;-75
2023/04/30 12:38:03;;;;;;;3.65;2.40;;;;;;;;;;5049624;28;20034;-74
2023/04/30 12:40:29;;;;;;;7.47;2.60;;;;;;;;;;5034342;28;20017;-74
2023/04/30 12:43:01;;;;;;;4.78;2.75;;;;;;;;;;5035669;28;20042;-74
2023/04/30 12:45:44;;;;;;;5.68;2.40;;;;;;;;;;5030387;28;20122;-75
2023/04/30 12:48:10;;;;;;;5.03;3.00;;;;;;;;;;5028530;28;21142;-74
2023/04/30 12:50:38;;;;;;;3.85;2.33;;;;;;;;;;5047372;28;20165;-75
2023/04/30 12:53:04;;;;;;;6.93;3.35;;;;;;;;;;5028318;28;20029;-72
2023/04/30 12:55:31;;;;;;;19.23;5.45;;;;;;;;;;5046066;28;20523;-72
2023/04/30 12:58:15;;;;;;;9.50;3.67;;;;;;;;;;5043583;28;20413;-72
2023/04/30 13:00:44;;;;;;;6.40;3.33;;;;;;;;;;5024937;28;20041;-72
2023/04/30 13:03:11;;;;;;;4.32;2.20;;;;;;;;;;5039571;28;20260;-73
2023/04/30 13:05:38;;;;;;;4.40;2.40;;;;;;;;;;5044934;28;20029;-73
2023/04/30 13:08:08;;;;;;;3.88;2.58;;;;;;;;;;5030461;28;20719;-72
2023/04/30 13:10:34;;;;;;;4.00;2.60;;;;;;;;;;5044926;28;20450;-73
2023/04/30 13:13:00;;;;;;;8.05;3.63;;;;;;;;;;5030083;28;20036;-74
2023/04/30 13:15:27;;;;;;;5.57;3.35;;;;;;;;;;5027036;28;20026;-73
2023/04/30 13:17:53;;;;;;;6.45;3.20;;;;;;;;;;5046527;28;20510;-75
2023/04/30 13:20:19;;;;;;;5.95;2.95;;;;;;;;;;5030477;28;20041;-73
2023/04/30 13:22:45;;;;;;;5.15;2.85;;;;;;;;;;5048487;28;20057;-74
2023/04/30 13:25:11;;;;;;;5.18;2.90;;;;;;;;;;5029777;28;20025;-76
2023/04/30 13:27:38;;;;;;;6.05;2.80;;;;;;;;;;5033524;28;20026;-75
2023/04/30 13:30:04;;;;;;;5.13;2.58;;;;;;;;;;5045763;28;20083;-74
2023/04/30 13:32:31;;;;;;;6.32;2.90;;;;;;;;;;5032096;28;20124;-74
2023/04/30 13:34:57;;;;;;;4.57;2.45;;;;;;;;;;5032431;28;20402;-74
2023/04/30 13:37:23;;;;;;;4.57;2.70;;;;;;;;;;5033487;28;20394;-76
2023/04/30 13:39:49;;;;;;;4.75;2.67;;;;;;;;;;5046539;28;20021;-74
2023/04/30 13:42:16;;;;;;;4.63;2.40;;;;;;;;;;5033146;28;20068;-73
2023/04/30 13:44:44;;;;;;;4.35;2.15;;;;;;;;;;5031174;28;20108;-75
2023/04/30 13:47:10;;;;;;;3.72;2.10;;;;;;;;;;5046479;28;20021;-74
2023/04/30 13:49:36;;;;;;;5.38;2.45;;;;;;;;;;5048755;28;20116;-75
2023/04/30 13:52:05;;;;;;;5.57;2.20;;;;;;;;;;5032709;28;20029;-75
2023/04/30 13:54:31;;;;;;;7.30;2.58;;;;;;;;;;5031666;28;20022;-74
2023/04/30 13:57:01;;;;;;;3.33;2.83;;;;;;;;;;5033392;28;20017;-74
2023/04/30 13:59:27;;;;;;;5.35;2.50;;;;;;;;;;5037946;28;20009;-75
2023/04/30 14:01:53;;;;;;;3.42;2.10;;;;;;;;;;5033346;28;20493;-74
2023/04/30 14:04:19;;;;;;;5.13;2.83;;;;;;;;;;5032093;28;20017;-74
2023/04/30 14:06:46;;;;;;;5.50;2.53;;;;;;;;;;5036032;28;20094;-75
2023/04/30 14:09:12;;;;;;;6.05;2.40;;;;;;;;;;5031942;28;20024;-75
2023/04/30 14:11:39;;;;;;;4.47;2.40;;;;;;;;;;5028322;28;20057;-75
2023/04/30 14:14:05;;;;;;;5.38;2.53;;;;;;;;;;5032109;28;20460;-74
2023/04/30 14:16:31;;;;;;;4.93;2.28;;;;;;;;;;5047248;28;20048;-75
2023/04/30 14:18:57;;;;;;;4.85;2.38;;;;;;;;;;5032195;28;20025;-74
2023/04/30 14:21:23;;;;;;;5.63;3.40;;;;;;;;;;5037197;28;20033;-75
2023/04/30 14:23:51;;;;;;;6.15;4.53;;;;;;;;;;5031489;28;20045;-75
2023/04/30 14:26:17;;;;;;;14.52;10.15;;;;;;;;;;5029998;28;20029;-74
2023/04/30 14:28:43;;;;;;;7.65;4.20;;;;;;;;;;5032388;28;20688;-75
2023/04/30 14:31:09;;;;;;;7.88;5.65;;;;;;;;;;5046367;28;20037;-74
2023/04/30 14:33:35;;;;;;;7.55;3.38;;;;;;;;;;5032764;28;20033;-74
2023/04/30 14:36:01;;;;;;;5.93;3.00;;;;;;;;;;5047426;28;20374;-74
2023/04/30 14:38:28;;;;;;;5.82;2.28;;;;;;;;;;5029814;28;20033;-74
2023/04/30 14:40:54;;;;;;;8.02;2.80;;;;;;;;;;5025813;28;20088;-76
2023/04/30 14:43:20;;;;;;;4.78;2.40;;;;;;;;;;5033697;28;20065;-74
2023/04/30 14:45:46;;;;;;;3.95;2.85;;;;;;;;;;5031586;28;20559;-75